createdAt,value
2018-09-14T00:01:07.386Z,22.70
2018-09-14T00:03:35.093Z,22.60
2018-09-14T00:06:02.774Z,26.97
2018-09-14T00:08:30.495Z,23.77
2018-09-14T00:10:58.201Z,22.17
2018-09-14T00:13:25.916Z,22.05
2018-09-14T00:15:53.625Z,26.80
2018-09-14T00:18:21.329Z,24.73
2018-09-14T00:20:49.020Z,32.00
2018-09-14T00:23:16.665Z,25.70
2018-09-14T00:25:44.453Z,31.70
2018-09-14T00:28:12.212Z,23.77
2018-09-14T00:30:40.822Z,35.97
2018-09-14T00:33:08.744Z,20.70
2018-09-14T00:35:36.479Z,26.83
2018-09-14T00:38:04.217Z,18.63
2018-09-14T00:40:31.881Z,17.00
2018-09-14T00:42:59.586Z,25.48
2018-09-14T00:45:27.303Z,26.40
2018-09-14T00:47:54.984Z,31.50
2018-09-14T00:50:22.623Z,27.37
2018-09-14T00:52:50.290Z,21.27
2018-09-14T00:55:18.018Z,21.25
2018-09-14T00:57:45.724Z,22.37
2018-09-14T01:00:13.418Z,18.23
2018-09-14T01:02:41.087Z,22.83
2018-09-14T01:05:08.819Z,28.20
2018-09-14T01:07:36.537Z,23.70
2018-09-14T01:10:05.486Z,24.70
2018-09-14T01:12:33.637Z,24.60
2018-09-14T01:15:01.343Z,31.47
2018-09-14T01:17:29.014Z,19.67
2018-09-14T01:19:56.738Z,26.70
2018-09-14T01:22:24.466Z,21.48
2018-09-14T01:24:52.201Z,24.70
2018-09-14T01:27:19.883Z,26.60
2018-09-14T01:29:47.547Z,21.87
2018-09-14T01:32:15.242Z,17.50
2018-09-14T01:34:43.093Z,23.65
2018-09-14T01:37:10.746Z,21.65
2018-09-14T01:39:38.416Z,26.25
2018-09-14T01:42:06.481Z,20.30
2018-09-14T01:44:34.166Z,17.70
2018-09-14T01:47:01.909Z,24.00
2018-09-14T01:49:29.619Z,20.80
2018-09-14T01:51:57.293Z,21.87
2018-09-14T01:54:25.003Z,22.30
2018-09-14T01:56:52.749Z,26.37
2018-09-14T01:59:20.433Z,22.80
2018-09-14T02:01:48.082Z,18.83
2018-09-14T02:04:15.861Z,18.12
2018-09-14T02:06:43.557Z,23.07
2018-09-14T02:09:11.629Z,20.63
2018-09-14T02:11:39.437Z,19.85
2018-09-14T02:14:07.412Z,19.87
2018-09-14T02:16:35.141Z,21.25
2018-09-14T02:19:03.010Z,17.80
2018-09-14T02:21:30.952Z,21.23
2018-09-14T02:23:58.614Z,21.23
2018-09-14T02:26:26.354Z,20.40
2018-09-14T02:28:54.061Z,22.93
2018-09-14T02:31:21.846Z,22.13
2018-09-14T02:33:49.568Z,19.40
2018-09-14T02:36:17.253Z,20.93
2018-09-14T02:38:45.003Z,22.10
2018-09-14T02:41:12.733Z,20.68
2018-09-14T02:43:40.418Z,27.17
2018-09-14T02:46:08.094Z,26.87
2018-09-14T02:48:35.812Z,23.63
2018-09-14T02:51:03.578Z,24.93
2018-09-14T02:53:31.444Z,26.50
2018-09-14T02:55:59.372Z,24.53
2018-09-14T02:58:27.079Z,26.10
2018-09-14T03:00:54.746Z,31.87
2018-09-14T03:03:22.475Z,32.63
2018-09-14T03:05:50.139Z,30.57
2018-09-14T03:08:17.773Z,31.00
2018-09-14T03:10:45.438Z,27.97
2018-09-14T03:13:13.129Z,30.43
2018-09-14T03:15:40.793Z,29.43
2018-09-14T03:18:08.527Z,29.60
2018-09-14T03:20:36.196Z,36.50
2018-09-14T03:23:03.840Z,36.93
2018-09-14T03:25:31.564Z,43.03
2018-09-14T03:27:59.252Z,35.00
2018-09-14T03:30:26.984Z,41.67
2018-09-14T03:32:54.705Z,36.23
2018-09-14T03:35:22.371Z,41.75
2018-09-14T03:37:50.108Z,41.03
2018-09-14T03:40:17.782Z,40.23
2018-09-14T03:42:45.470Z,42.80
2018-09-14T03:45:13.196Z,44.88
2018-09-14T03:47:40.887Z,42.67
2018-09-14T03:50:08.571Z,41.87
2018-09-14T03:52:36.286Z,48.53
2018-09-14T03:55:04.090Z,48.57
2018-09-14T03:57:31.772Z,44.73
2018-09-14T03:59:59.456Z,52.35
2018-09-14T04:02:27.124Z,50.27
2018-09-14T04:04:54.799Z,53.50
2018-09-14T04:07:22.501Z,44.33
2018-09-14T04:09:50.143Z,48.87
2018-09-14T04:12:17.822Z,42.53
2018-09-14T04:14:45.498Z,36.97
2018-09-14T04:17:13.150Z,30.77
2018-09-14T04:19:40.810Z,32.45
2018-09-14T04:22:08.585Z,31.70
2018-09-14T04:24:36.281Z,26.97
2018-09-14T04:27:03.990Z,23.73
2018-09-14T04:29:31.711Z,28.73
2018-09-14T04:31:59.351Z,25.20
2018-09-14T04:34:27.045Z,31.95
2018-09-14T04:36:54.846Z,26.30
2018-09-14T04:39:22.514Z,23.00
2018-09-14T04:41:50.161Z,20.20
2018-09-14T04:44:17.846Z,23.43
2018-09-14T04:46:45.614Z,28.70
2018-09-14T04:49:13.334Z,18.90
2018-09-14T04:51:41.254Z,17.80
2018-09-14T04:54:08.945Z,17.60
2018-09-14T04:56:36.600Z,19.20
2018-09-14T04:59:04.305Z,21.02
2018-09-14T05:01:32.034Z,15.37
2018-09-14T05:03:59.819Z,15.07
2018-09-14T05:06:27.480Z,19.87
2018-09-14T05:08:55.216Z,19.10
2018-09-14T05:11:22.898Z,20.97
2018-09-14T05:13:50.561Z,14.23
2018-09-14T05:16:18.245Z,15.55
2018-09-14T05:18:46.404Z,15.43
2018-09-14T05:21:14.205Z,17.52
2018-09-14T05:23:41.873Z,12.73
2018-09-14T05:26:09.543Z,11.13
2018-09-14T05:28:37.285Z,15.70
2018-09-14T05:31:05.019Z,11.33
2018-09-14T05:33:32.803Z,9.33
2018-09-14T05:36:00.500Z,12.83
2018-09-14T05:38:28.368Z,11.23
2018-09-14T05:40:56.013Z,9.15
2018-09-14T05:43:23.713Z,9.30
2018-09-14T05:45:51.459Z,10.73
2018-09-14T05:48:19.201Z,10.58
2018-09-14T05:50:47.074Z,11.73
2018-09-14T05:53:14.781Z,8.95
2018-09-14T05:55:42.488Z,9.25
2018-09-14T05:58:10.180Z,8.70
2018-09-14T06:00:37.934Z,10.83
2018-09-14T06:03:05.681Z,8.70
2018-09-14T06:05:33.387Z,12.70
2018-09-14T06:08:01.114Z,8.23
2018-09-14T06:10:28.789Z,7.72
2018-09-14T06:12:56.454Z,7.58
2018-09-14T06:15:24.166Z,9.93
2018-09-14T06:17:51.875Z,10.73
2018-09-14T06:20:19.550Z,8.50
2018-09-14T06:22:47.286Z,7.63
2018-09-14T06:25:14.956Z,7.20
2018-09-14T06:27:42.638Z,7.10
2018-09-14T06:30:10.310Z,7.37
2018-09-14T06:32:37.969Z,7.70
2018-09-14T06:35:05.710Z,7.50
2018-09-14T06:37:33.411Z,10.03
2018-09-14T06:40:01.160Z,9.10
2018-09-14T06:42:28.852Z,8.47
2018-09-14T06:44:56.621Z,7.47
2018-09-14T06:47:24.274Z,6.70
2018-09-14T06:49:51.992Z,7.00
2018-09-14T06:52:19.681Z,6.50
2018-09-14T06:54:47.340Z,6.77
2018-09-14T06:57:15.041Z,6.23
2018-09-14T06:59:42.742Z,8.40
2018-09-14T07:02:10.522Z,7.93
2018-09-14T07:04:38.248Z,8.48
2018-09-14T07:07:05.922Z,11.13
2018-09-14T07:09:33.621Z,8.33
2018-09-14T07:12:01.367Z,9.98
2018-09-14T07:14:29.030Z,7.47
2018-09-14T07:16:56.702Z,10.60
2018-09-14T07:19:24.433Z,17.00
2018-09-14T07:21:52.244Z,16.20
2018-09-14T07:24:19.969Z,10.90
2018-09-14T07:26:47.896Z,10.63
2018-09-14T07:29:15.663Z,12.73
2018-09-14T07:31:43.429Z,12.43
2018-09-14T07:34:11.044Z,14.85
2018-09-14T07:36:39.562Z,11.22
2018-09-14T07:39:08.518Z,13.77
2018-09-14T07:41:36.247Z,13.77
2018-09-14T07:44:04.067Z,13.97
2018-09-14T07:46:31.784Z,13.63
2018-09-14T07:48:59.496Z,16.10
2018-09-14T07:51:27.193Z,15.60
2018-09-14T07:53:54.939Z,14.03
2018-09-14T07:56:22.682Z,14.47
2018-09-14T07:58:50.386Z,17.80
2018-09-14T08:01:18.202Z,15.00
2018-09-14T08:03:45.854Z,11.80
2018-09-14T08:06:13.541Z,14.00
2018-09-14T08:08:41.261Z,11.75
2018-09-14T08:11:09.015Z,18.83
2018-09-14T08:13:36.656Z,18.67
2018-09-14T08:16:04.403Z,16.83
2018-09-14T08:18:32.105Z,15.43
2018-09-14T08:20:59.753Z,14.75
2018-09-14T08:23:27.427Z,13.10
2018-09-14T08:25:55.120Z,13.53
2018-09-14T08:28:22.799Z,13.55
2018-09-14T08:30:50.517Z,19.77
2018-09-14T08:33:18.417Z,15.33
2018-09-14T08:35:46.164Z,22.63
2018-09-14T08:38:13.818Z,17.43
2018-09-14T08:40:41.504Z,17.90
2018-09-14T08:43:09.238Z,19.87
2018-09-14T08:45:36.948Z,22.73
2018-09-14T08:48:04.947Z,17.57
2018-09-14T08:50:32.696Z,20.48
2018-09-14T08:53:00.426Z,20.17
2018-09-14T08:55:28.091Z,23.63
2018-09-14T08:57:55.913Z,17.13
2018-09-14T09:00:24.100Z,22.33
2018-09-14T09:02:52.619Z,17.87
2018-09-14T09:05:20.460Z,20.73
2018-09-14T09:07:48.576Z,15.63
2018-09-14T09:10:16.320Z,19.70
2018-09-14T09:12:43.989Z,22.17
2018-09-14T09:15:11.732Z,16.40
2018-09-14T09:17:39.503Z,15.63
2018-09-14T09:20:07.297Z,24.67
2018-09-14T09:22:35.024Z,17.97
2018-09-14T09:25:02.739Z,21.48
2018-09-14T09:27:30.459Z,22.48
2018-09-14T09:29:58.185Z,23.40
2018-09-14T09:32:25.884Z,18.17
2018-09-14T09:34:53.764Z,21.10
2018-09-14T09:37:21.498Z,23.30
2018-09-14T09:39:49.205Z,20.53
2018-09-14T09:42:16.914Z,26.77
2018-09-14T09:44:44.642Z,18.47
2018-09-14T09:47:12.389Z,18.37
2018-09-14T09:49:40.039Z,18.52
2018-09-14T09:52:07.831Z,19.82
2018-09-14T09:54:35.522Z,21.02
2018-09-14T09:57:03.178Z,21.03
2018-09-14T09:59:30.861Z,14.30
2018-09-14T10:02:04.056Z,19.97
2018-09-14T10:04:38.139Z,13.83
2018-09-14T10:07:05.846Z,18.33
2018-09-14T10:09:33.584Z,12.70
2018-09-14T10:12:01.500Z,15.20
2018-09-14T10:14:29.208Z,11.83
2018-09-14T10:16:56.855Z,14.18
2018-09-14T10:19:24.582Z,11.47
2018-09-14T10:21:52.344Z,15.37
2018-09-14T10:24:20.051Z,16.10
2018-09-14T10:26:47.816Z,17.73
2018-09-14T10:29:15.459Z,13.60
2018-09-14T10:31:43.102Z,12.82
2018-09-14T10:34:10.805Z,18.37
2018-09-14T10:36:38.526Z,12.17
2018-09-14T10:39:07.888Z,12.67
2018-09-14T10:41:35.609Z,12.88
2018-09-14T10:44:03.325Z,13.08
2018-09-14T10:46:31.017Z,15.87
2018-09-14T10:48:58.963Z,14.27
2018-09-14T10:51:26.978Z,11.10
2018-09-14T10:53:54.918Z,11.70
2018-09-14T10:56:22.614Z,9.90
2018-09-14T10:58:50.310Z,9.77
2018-09-14T11:01:17.995Z,9.67
2018-09-14T11:03:45.832Z,11.50
2018-09-14T11:06:14.233Z,12.77
2018-09-14T11:08:41.890Z,13.87
2018-09-14T11:11:09.583Z,17.13
2018-09-14T11:13:37.298Z,18.07
2018-09-14T11:16:05.053Z,9.63
2018-09-14T11:18:32.735Z,13.20
2018-09-14T11:21:00.498Z,17.48
2018-09-14T11:23:28.221Z,21.17
2018-09-14T11:25:55.881Z,11.50
2018-09-14T11:28:23.543Z,14.53
2018-09-14T11:30:51.238Z,10.83
2018-09-14T11:33:18.947Z,50.77
2018-09-14T11:35:46.636Z,18.82
2018-09-14T11:38:14.327Z,18.17
2018-09-14T11:40:42.070Z,16.03
2018-09-14T11:43:09.733Z,17.12
2018-09-14T11:45:37.512Z,17.73
2018-09-14T11:48:05.556Z,12.00
2018-09-14T11:50:33.275Z,17.77
2018-09-14T11:53:01.018Z,11.10
2018-09-14T11:55:28.710Z,15.10
2018-09-14T11:57:56.393Z,12.43
2018-09-14T12:00:24.116Z,8.97
2018-09-14T12:02:51.818Z,9.70
2018-09-14T12:05:19.539Z,16.62
2018-09-14T12:07:47.202Z,8.55
2018-09-14T12:10:14.888Z,11.57
2018-09-14T12:12:42.620Z,12.17
2018-09-14T12:15:10.309Z,8.67
2018-09-14T12:17:38.057Z,9.10
2018-09-14T12:20:05.794Z,9.23
2018-09-14T12:22:33.494Z,11.37
2018-09-14T12:25:01.231Z,11.13
2018-09-14T12:27:28.939Z,9.73
2018-09-14T12:29:56.637Z,11.63
2018-09-14T12:32:24.285Z,12.33
2018-09-14T12:34:52.017Z,13.70
2018-09-14T12:37:19.718Z,15.40
2018-09-14T12:39:47.401Z,15.50
2018-09-14T12:42:15.113Z,9.03
2018-09-14T12:44:42.778Z,11.85
2018-09-14T12:47:10.493Z,10.10
2018-09-14T12:49:38.205Z,14.30
2018-09-14T12:52:05.980Z,10.60
2018-09-14T12:54:33.805Z,13.50
2018-09-14T12:57:01.491Z,13.43
2018-09-14T12:59:29.264Z,12.20
2018-09-14T13:01:56.974Z,10.78
2018-09-14T13:04:24.715Z,12.30
2018-09-14T13:06:52.901Z,12.10
2018-09-14T13:09:20.605Z,12.77
2018-09-14T13:11:48.229Z,14.07
2018-09-14T13:14:19.098Z,14.70
2018-09-14T13:16:47.229Z,10.83
2018-09-14T13:19:15.006Z,11.73
2018-09-14T13:21:42.690Z,9.20
2018-09-14T13:24:10.398Z,13.00
2018-09-14T13:26:38.089Z,11.55
2018-09-14T13:29:05.913Z,9.83
2018-09-14T13:31:33.702Z,11.07
2018-09-14T13:34:01.369Z,10.97
2018-09-14T13:36:29.042Z,11.97
2018-09-14T13:38:56.834Z,10.97
2018-09-14T13:41:24.520Z,13.17
2018-09-14T13:43:52.346Z,10.20
2018-09-14T13:46:20.078Z,11.48
2018-09-14T13:48:49.064Z,10.88
2018-09-14T13:51:16.893Z,11.48
2018-09-14T13:53:44.722Z,11.05
2018-09-14T13:56:12.586Z,11.33
2018-09-14T13:58:40.450Z,9.88
2018-09-14T14:01:08.280Z,9.58
2018-09-14T14:03:36.093Z,7.80
2018-09-14T14:06:03.838Z,8.33
2018-09-14T14:08:31.856Z,9.40
2018-09-14T14:10:59.988Z,9.48
2018-09-14T14:13:27.885Z,8.87
2018-09-14T14:15:55.834Z,9.60
2018-09-14T14:18:23.935Z,7.40
2018-09-14T14:20:51.646Z,8.90
2018-09-14T14:23:19.326Z,8.27
2018-09-14T14:25:47.021Z,7.55
2018-09-14T14:28:14.729Z,8.70
2018-09-14T14:30:42.504Z,11.77
2018-09-14T14:33:10.247Z,9.33
2018-09-14T14:35:38.293Z,11.00
2018-09-14T14:38:05.981Z,9.80
2018-09-14T14:40:33.667Z,8.20
2018-09-14T14:43:01.364Z,9.90
2018-09-14T14:45:29.045Z,9.20
2018-09-14T14:47:56.713Z,9.20
2018-09-14T14:50:24.453Z,7.40
2018-09-14T14:52:52.169Z,11.77
2018-09-14T14:55:19.887Z,11.60
2018-09-14T14:57:47.635Z,10.77
2018-09-14T15:00:15.288Z,9.40
2018-09-14T15:02:43.040Z,10.63
2018-09-14T15:05:10.814Z,11.47
2018-09-14T15:07:38.857Z,11.63
2018-09-14T15:10:06.564Z,9.37
2018-09-14T15:12:34.433Z,9.27
2018-09-14T15:15:02.137Z,12.60
2018-09-14T15:17:29.845Z,12.70
2018-09-14T15:19:57.584Z,11.08
2018-09-14T15:22:25.281Z,10.10
2018-09-14T15:24:52.948Z,10.30
2018-09-14T15:27:20.587Z,11.53
2018-09-14T15:29:48.525Z,9.77
2018-09-14T15:32:16.182Z,10.67
2018-09-14T15:34:43.933Z,9.55
2018-09-14T15:37:12.306Z,7.28
2018-09-14T15:39:40.122Z,7.73
2018-09-14T15:42:07.997Z,7.63
2018-09-14T15:44:35.958Z,10.27
2018-09-14T15:47:04.187Z,10.37
2018-09-14T15:49:32.087Z,7.58
2018-09-14T15:51:59.941Z,6.62
2018-09-14T15:54:28.066Z,7.10
2018-09-14T15:56:56.370Z,18.43
2018-09-14T15:59:24.341Z,13.67
2018-09-14T16:01:52.246Z,10.30
2018-09-14T16:04:20.327Z,13.53
2018-09-14T16:06:48.227Z,14.33
2018-09-14T16:09:16.110Z,9.20
2018-09-14T16:11:44.037Z,6.50
2018-09-14T16:14:11.849Z,6.90
2018-09-14T16:16:39.806Z,6.07
2018-09-14T16:19:07.571Z,27.43
2018-09-14T16:21:35.359Z,38.63
2018-09-14T16:24:03.480Z,17.97
2018-09-14T16:26:31.424Z,12.20
2018-09-14T16:28:59.234Z,6.87
2018-09-14T16:31:27.239Z,8.70
2018-09-14T16:33:55.137Z,15.00
2018-09-14T16:36:22.934Z,10.07
2018-09-14T16:38:50.826Z,9.17
2018-09-14T16:41:18.672Z,6.57
2018-09-14T16:43:46.561Z,7.83
2018-09-14T16:46:14.349Z,9.43
2018-09-14T16:48:42.827Z,7.13
2018-09-14T16:51:10.585Z,8.87
2018-09-14T16:53:38.308Z,6.27
2018-09-14T16:56:06.009Z,5.30
2018-09-14T16:58:34.364Z,7.85
2018-09-14T17:01:02.018Z,6.03
2018-09-14T17:03:29.693Z,5.57
2018-09-14T17:05:57.300Z,5.53
2018-09-14T17:08:24.986Z,7.10
2018-09-14T17:10:53.325Z,9.80
2018-09-14T17:13:20.935Z,6.87
2018-09-14T17:15:48.606Z,6.00
2018-09-14T17:18:16.192Z,6.40
2018-09-14T17:20:43.815Z,6.67
2018-09-14T17:23:11.423Z,7.00
2018-09-14T17:25:39.037Z,6.42
2018-09-14T17:28:06.672Z,8.40
2018-09-14T17:30:34.346Z,6.97
2018-09-14T17:33:01.985Z,6.70
2018-09-14T17:35:29.617Z,8.15
2018-09-14T17:37:57.299Z,6.70
2018-09-14T17:40:24.899Z,7.97
2018-09-14T17:42:52.517Z,7.03
2018-09-14T17:45:20.167Z,8.70
2018-09-14T17:47:47.826Z,7.37
2018-09-14T17:50:15.439Z,8.70
2018-09-14T17:52:43.165Z,9.70
2018-09-14T17:55:10.859Z,8.05
2018-09-14T17:57:38.459Z,7.40
2018-09-14T18:00:06.550Z,8.77
2018-09-14T18:02:34.167Z,9.20
2018-09-14T18:05:01.751Z,11.27
2018-09-14T18:07:29.395Z,8.53
2018-09-14T18:09:57.071Z,8.27
2018-09-14T18:12:24.714Z,9.53
2018-09-14T18:14:52.478Z,9.57
2018-09-14T18:17:20.186Z,10.90
2018-09-14T18:19:48.945Z,9.67
2018-09-14T18:22:16.838Z,9.83
2018-09-14T18:24:44.483Z,10.87
2018-09-14T18:27:12.340Z,10.60
2018-09-14T18:29:39.948Z,12.37
2018-09-14T18:32:07.639Z,10.18
2018-09-14T18:34:35.341Z,8.87
2018-09-14T18:37:03.055Z,8.23
2018-09-14T18:39:30.672Z,7.53
2018-09-14T18:41:58.310Z,6.80
2018-09-14T18:44:25.936Z,5.97
2018-09-14T18:46:53.661Z,7.33
2018-09-14T18:49:21.303Z,7.07
2018-09-14T18:51:49.505Z,9.03
2018-09-14T18:54:17.231Z,6.70
2018-09-14T18:56:44.802Z,6.33
2018-09-14T18:59:12.421Z,9.07
2018-09-14T19:01:40.176Z,6.63
2018-09-14T19:04:07.785Z,6.10
2018-09-14T19:06:35.502Z,10.00
2018-09-14T19:09:07.691Z,6.33
2018-09-14T19:11:35.551Z,7.30
2018-09-14T19:14:03.362Z,7.43
2018-09-14T19:16:31.172Z,6.87
2018-09-14T19:18:59.107Z,8.07
2018-09-14T19:21:27.866Z,7.10
2018-09-14T19:23:55.487Z,9.57
2018-09-14T19:26:23.147Z,6.80
2018-09-14T19:28:51.000Z,7.13
2018-09-14T19:31:18.753Z,7.30
2018-09-14T19:33:47.566Z,6.63
2018-09-14T19:36:15.344Z,7.90
2018-09-14T19:38:43.043Z,7.77
2018-09-14T19:41:10.702Z,7.17
2018-09-14T19:43:38.939Z,6.33
2018-09-14T19:46:07.074Z,6.70
2018-09-14T19:48:34.918Z,8.00
2018-09-14T19:51:02.584Z,8.80
2018-09-14T19:53:30.434Z,7.37
2018-09-14T19:55:58.387Z,8.17
2018-09-14T19:58:26.271Z,9.43
2018-09-14T20:00:54.084Z,8.80
2018-09-14T20:03:21.882Z,7.73
2018-09-14T20:05:49.561Z,8.47
2018-09-14T20:08:17.325Z,10.90
2018-09-14T20:10:45.144Z,7.22
2018-09-14T20:13:13.187Z,8.53
2018-09-14T20:15:41.008Z,7.25
2018-09-14T20:18:09.012Z,8.38
2018-09-14T20:20:36.928Z,11.37
2018-09-14T20:23:04.988Z,9.20
2018-09-14T20:25:32.981Z,8.23
2018-09-14T20:28:00.884Z,11.67
2018-09-14T20:30:28.942Z,11.90
2018-09-14T20:32:56.750Z,14.53
2018-09-14T20:35:24.656Z,12.70
2018-09-14T20:37:52.331Z,10.93
2018-09-14T20:40:20.279Z,13.97
2018-09-14T20:42:48.028Z,12.53
2018-09-14T20:45:15.926Z,13.27
2018-09-14T20:47:43.826Z,13.50
2018-09-14T20:50:11.618Z,10.57
2018-09-14T20:52:39.389Z,10.47
2018-09-14T20:55:07.366Z,26.60
2018-09-14T20:57:35.116Z,11.17
2018-09-14T21:00:03.107Z,15.40
2018-09-14T21:02:30.857Z,9.67
2018-09-14T21:04:58.594Z,10.90
2018-09-14T21:07:26.312Z,11.05
2018-09-14T21:09:54.391Z,11.93
2018-09-14T21:12:22.150Z,9.23
2018-09-14T21:14:49.885Z,8.43
2018-09-14T21:17:17.906Z,9.45
2018-09-14T21:19:46.011Z,9.80
2018-09-14T21:22:14.118Z,11.60
2018-09-14T21:24:41.889Z,9.47
2018-09-14T21:27:09.749Z,8.57
2018-09-14T21:29:37.494Z,8.67
2018-09-14T21:32:05.576Z,10.27
2018-09-14T21:34:33.482Z,9.00
2018-09-14T21:37:01.345Z,8.70
2018-09-14T21:39:29.260Z,8.50
2018-09-14T21:41:56.919Z,8.27
2018-09-14T21:44:24.821Z,7.50
2018-09-14T21:46:52.495Z,7.10
2018-09-14T21:49:20.158Z,8.55
2018-09-14T21:51:47.766Z,9.48
2018-09-14T21:54:15.380Z,8.83
2018-09-14T21:56:42.943Z,8.27
2018-09-14T21:59:10.629Z,8.43
2018-09-14T22:01:38.251Z,9.68
2018-09-14T22:04:05.918Z,8.90
2018-09-14T22:06:33.539Z,8.63
2018-09-14T22:09:01.155Z,7.63
2018-09-14T22:11:28.752Z,8.35
2018-09-14T22:13:56.385Z,7.93
2018-09-14T22:16:23.987Z,7.50
2018-09-14T22:18:51.622Z,7.50
2018-09-14T22:21:19.286Z,7.80
2018-09-14T22:23:46.910Z,7.47
2018-09-14T22:26:14.602Z,8.17
2018-09-14T22:28:42.244Z,8.27
2018-09-14T22:31:09.848Z,9.00
2018-09-14T22:33:37.487Z,8.97
2018-09-14T22:36:05.101Z,8.03
2018-09-14T22:38:32.713Z,8.20
2018-09-14T22:41:00.358Z,9.13
2018-09-14T22:43:28.120Z,7.83
2018-09-14T22:45:55.735Z,7.77
2018-09-14T22:48:39.998Z,7.75
2018-09-14T22:51:07.967Z,7.80
2018-09-14T22:53:35.641Z,7.77
2018-09-14T22:56:03.698Z,9.53
2018-09-14T22:58:31.332Z,7.10
2018-09-14T23:01:04.503Z,7.90
2018-09-14T23:03:32.734Z,7.93
2018-09-14T23:06:00.415Z,7.73
2018-09-14T23:08:28.102Z,9.10
2018-09-14T23:10:56.786Z,7.58
2018-09-14T23:13:24.429Z,8.17
2018-09-14T23:15:57.787Z,7.70
2018-09-14T23:18:25.445Z,8.30
2018-09-14T23:20:53.120Z,7.67
2018-09-14T23:23:20.844Z,7.35
2018-09-14T23:25:49.105Z,7.95
2018-09-14T23:28:16.728Z,9.27
2018-09-14T23:30:44.407Z,12.50
2018-09-14T23:33:12.018Z,14.33
2018-09-14T23:35:40.395Z,11.80
2018-09-14T23:38:08.059Z,12.85
2018-09-14T23:40:35.761Z,10.60
2018-09-14T23:43:03.437Z,10.63
2018-09-14T23:45:31.043Z,11.27
2018-09-14T23:47:58.694Z,12.27
2018-09-14T23:50:26.395Z,11.97
2018-09-14T23:52:54.038Z,10.72
2018-09-14T23:55:21.771Z,11.97
2018-09-14T23:57:49.370Z,10.00
